Meteo4 di Emilio Bellavite Il primo osservatorio Meteo di Verona  
 
martedì 21 febbraio 2017
 
 
dati in tempo reale
Di seguito i dati in tempo reale delle stazioni on line della rete di Meteo4. Cliccando sul link della stazione, ove presente, si accederà al sito web personale.
Stazioni online
Località Giorno Ora Temp. Umid. Relat. Dew Point Press. Atm. Velocità Vento Direz. Vento Precip. Temp.
Min
Temp.
Max
Abano (PD) 21/02/17 21.35 7.6 °C 90 % 6.0 °C 1017.9 hPa 0.0 Km/h --- 0.0 mm  4.6 °C 8.1 °C
Acquapendente (VT) 21/02/17 21.52 5.6 °C 90 % 4.1 °C 1011.0 hPa 0.0 Km/h WSW 0.0 mm  -3.5 °C 14.6 °C
Acquaviva delle Fonti (BA) 21/02/17 21.53 8.4 °C 58 % 0.6 °C 1018.7 hPa 1.1 Km/h SW 0.0 mm  3.2 °C 14.3 °C
Ala (TN) 21/02/17 21.53 5.1 °C 86 % 3.0 °C 1018.1 hPa 0.0 Km/h S 0.0 mm  3.9 °C 11.7 °C
Alleghe (BL) 21/02/17 21.53 2.4 °C 77 % -1.2 °C 1002.7 hPa 0.0 Km/h NNE 0.0 mm  -0.4 °C 6.9 °C
Alleghe Lago (BL) 21/02/17 21.53 2.3 °C 80 % -0.8 °C 1007.6 hPa 1.9 Km/h NNE 0.0 mm  -1.1 °C 6.3 °C
Ancona (AN) 21/02/17 21.35 5.8 °C 85 % 3.5 °C 1019.4 hPa 0.0 Km/h --- 0.3 mm  1.2 °C 16.5 °C
Arenzano (GE) 21/02/17 21.53 11.4 °C 83 % 8.6 °C 1020.5 hPa 0.0 Km/h S 0.0 mm  9.4 °C 13.4 °C
Arquà Polesine (RO) 21/02/17 21.53 5.8 °C 94 % 4.9 °C 1009.5 hPa 0.0 Km/h E 0.0 mm  0.3 °C 6.9 °C
Arzignano loc. Castello (VI) 21/02/17 20.45 6.3 °C 89 % 4.7 °C 1018.7 hPa 0.0 Km/h --- 0.0 mm  3.1 °C 8.4 °C
Arzignano Pugnello (VI) 21/02/17 21.53 5.1 °C 90 % 3.3 °C 1017.4 hPa 0.0 Km/h ESE 0.0 mm  2.5 °C 7.3 °C
Arzignano Tezze (VI) 21/02/17 21.41 6.4 °C 91 % 5.0 °C 1018.5 hPa 0.0 Km/h ENE 0.0 mm  -0.1 °C 8.7 °C
Asiago Rifugio Val Formica (VI) 21/02/17 21.44 1.8 °C 71 % -2.9 °C 1017.5 hPa 0.0 Km/h N 0.0 mm  -1.4 °C 9.2 °C
Avenza-Carrara (MS) 21/02/17 21.30 9.3 °C 74 % 4.9 °C 1022.8 hPa 0.0 Km/h --- 0.0 mm  4.8 °C 15.8 °C
Avio (TN) 21/02/17 21.54 5.8 °C 89 % 4.1 °C 1017.5 hPa 0.0 Km/h NNW 0.0 mm  5.0 °C 11.6 °C
Badia Calavena loc. San Valentino (VR) 21/02/17 21.53 2.8 °C 96 % 2.2 °C 1016.1 hPa 1.6 Km/h NE 0.0 mm  2.2 °C 6.8 °C
Barcellona P.G. Centro (ME) 21/02/17 21.53 9.1 °C 76 % 5.1 °C 1023.4 hPa 9.7 Km/h ESE 3.4 mm  6.7 °C 15.1 °C
Barcellona Pozzo di Gotto (ME) 21/02/17 21.54 9.4 °C 77 % 5.6 °C 1023.3 hPa 10.6 Km/h S 3.8 mm  7.3 °C 14.4 °C
Bassano del Grappa (VI) 21/02/17 21.30 6.4 °C 86 % 4.2 °C 1005.6 hPa 0.0 Km/h --- 0.0 mm  3.5 °C 8.4 °C
Bellaria Igea Marina (RN) 21/02/17 21.52 6.2 °C 93 % 5.1 °C 1018.1 hPa 0.0 Km/h NE 0.2 mm  0.5 °C 9.4 °C
Bellaria Igea Marina2 (RN) 21/02/17 20.45 7.7 °C 93 % 6.7 °C 1017.4 hPa 1.6 Km/h E 0.2 mm  0.7 °C 9.7 °C
Bellaria Igea Marina3 (RN) 21/02/17 21.53 4.5 °C 92 % 3.3 °C 1017.6 hPa 4.0 Km/h WSW 0.0 mm  -0.8 °C 10.9 °C
Belluno Castion (BL) 21/02/17 21.30 3.2 °C 93 % 2.2 °C 1018.1 hPa 0.0 Km/h --- 0.0 mm  1.0 °C 8.4 °C
Besenello (TN) 21/02/17 21.53 4.4 °C 80 % 1.3 °C 1019.5 hPa 3.7 Km/h NNE 0.0 mm  2.8 °C 12.4 °C
Besozzo (VA) 21/02/17 21.33 4.3 °C 85 % 2.0 °C 1018.2 hPa 0.0 Km/h --- 0.0 mm  -0.8 °C 14.3 °C
Biasì (OT) 21/02/17 21.54 8.7 °C 79 % 5.3 °C 1020.7 hPa 0.0 Km/h SSE 0.0 mm  4.1 °C 16.6 °C
Bisignano (CS) 21/02/17 21.53 8.7 °C 49 % -1.4 °C 1020.2 hPa 6.1 Km/h SW 0.0 mm  4.3 °C 16.8 °C
Bitti (NU) 21/02/17 21.53 8.0 °C 81 % 4.9 °C 1021.0 hPa 13.0 Km/h S 0.0 mm  4.0 °C 13.0 °C
Bolognano di Arco (TN) 21/02/17 21.53 4.7 °C 92 % 3.5 °C 1019.2 hPa 0.0 Km/h ESE 0.0 mm  3.7 °C 9.4 °C
Bonorva (SS) 21/02/17 21.35 9.2 °C 88 % 7.3 °C 1021.9 hPa 8.0 Km/h S 0.0 mm  5.2 °C 12.7 °C
Borgo Valsugana (TN) 21/02/17 21.43 1.6 °C 75 % -2.4 °C 1019.9 hPa 1.4 Km/h WSW 0.0 mm  1.5 °C 8.9 °C
Borgofranco d'Ivrea (TO) 21/02/17 21.53 4.9 °C 80 % 1.7 °C 1018.1 hPa 0.0 Km/h NW 0.0 mm  0.3 °C 16.8 °C
Borore (NU) 21/02/17 21.54 8.6 °C 86 % 6.4 °C 1022.0 hPa 2.2 Km/h WSW 0.0 mm  3.9 °C 13.7 °C
Brebbia (VA) 21/02/17 21.20 5.0 °C 87 % 3.0 °C 1018.9 hPa 0.0 Km/h --- 0.0 mm  0.6 °C 15.1 °C
Bresega (PD) 21/02/17 21.53 4.6 °C 0 % -130.0 °C 1018.8 hPa 0.0 Km/h ENE 0.2 mm  1.6 °C 6.8 °C
Brolo c/da Parrazzà (ME) 21/02/17 21.30 9.5 °C 53 % 0.4 °C 1023.5 hPa 11.0 Km/h SSE 1.6 mm  6.1 °C 13.2 °C
Brugine2 (PD) 21/02/17 21.52 6.2 °C 94 % 5.3 °C 1019.4 hPa 0.0 Km/h NNE 0.2 mm  1.9 °C 6.8 °C
Buccheri (SR) 21/02/17 21.37 4.5 °C 64 % -1.7 °C 1016.0 hPa 0.0 Km/h W 0.0 mm  1.8 °C 11.3 °C
Budoia (PN) 21/02/17 21.45 5.5 °C 94 % 4.6 °C 1018.8 hPa 0.0 Km/h N 0.0 mm  4.3 °C 6.1 °C
Ca' Gallo (PU) 21/02/17 21.40 11.4 °C 69 % 6.0 °C 1019.2 hPa 6.4 Km/h W 0.0 mm  1.9 °C 14.8 °C
Calcinato (BS) 21/02/17 21.54 5.0 °C 90 % 3.5 °C 1021.6 hPa 0.0 Km/h ESE 0.0 mm  2.2 °C 10.8 °C
Calliano (TN) 21/02/17 21.53 4.1 °C 80 % 1.0 °C 1018.3 hPa 6.4 Km/h S 0.0 mm  2.2 °C 12.3 °C
Caltabellotta (AG) 21/02/17 21.30 0.0 °C 0 % 0.0 °C 1020.1 hPa 0.0 Km/h N 0.0 mm  0.0 °C 0.0 °C
Cammarata (AG) 21/02/17 21.54 5.0 °C 66 % -0.8 °C 1023.2 hPa 1.1 Km/h W 0.0 mm  3.2 °C 9.7 °C
Campoformido (UD) 21/02/17 21.53 5.8 °C 84 % 3.3 °C 1018.8 hPa 0.0 Km/h E 0.0 mm  4.4 °C 6.6 °C
Camposampiero (PD) 21/02/17 21.36 6.3 °C 69 % 1.0 °C 1019.0 hPa 0.0 Km/h NNE 0.0 mm  6.3 °C 6.3 °C
Capodimonte (VT) 21/02/17 21.50 7.4 °C 92 % 6.2 °C 1023.0 hPa 0.0 Km/h N 0.2 mm  3.6 °C 13.3 °C
Caprarola Centro Storico (VT) 21/02/17 21.54 6.8 °C 86 % 4.6 °C 1021.0 hPa 0.0 Km/h NW 0.0 mm  3.5 °C 13.3 °C
Caprino (VR) 21/02/17 21.53 5.7 °C 92 % 4.5 °C 1016.9 hPa 0.0 Km/h WSW 0.0 mm  2.8 °C 10.9 °C
Carceri (PD) 21/02/17 21.39 4.2 °C 94 % 3.3 °C 1018.5 hPa 3.2 Km/h SE 0.0 mm  1.1 °C 6.6 °C
Carmignano loc. Seano (PO) 21/02/17 12.55 10.7 °C 77 % 6.8 °C 1022.1 hPa 0.0 Km/h NNW 0.0 mm  2.4 °C 10.7 °C
Carpi (MO) 21/02/17 21.53 5.1 °C 95 % 4.3 °C 1018.3 hPa 5.8 Km/h E 0.0 mm  0.1 °C 13.5 °C
Cartigliano (VI) 21/02/17 21.53 6.6 °C 91 % 5.2 °C 1018.2 hPa 0.0 Km/h ESE 0.0 mm  3.4 °C 8.4 °C
Casotto (VI) 21/02/17 21.32 4.5 °C 94 % 3.9 °C 1017.2 hPa 0.0 Km/h N 0.0 mm  2.8 °C 8.0 °C
Cassano Magnago (VA) 21/02/17 21.43 5.9 °C 91 % 4.6 °C 1018.5 hPa 0.0 Km/h ENE 0.3 mm  0.1 °C 15.1 °C
Castel d'Azzano (VR) 21/02/17 21.35 5.6 °C 93 % 4.5 °C 844.7 hPa 0.0 Km/h --- 0.0 mm  2.8 °C 6.3 °C
Castelfranco Veneto (TV) 21/02/17 21.35 5.9 °C 99 % 5.8 °C 1019.3 hPa 0.0 Km/h --- 0.0 mm  3.5 °C 7.7 °C
Castelfranco Veneto2 (TV) 21/02/17 21.43 5.9 °C 95 % 5.2 °C 1019.2 hPa 0.0 Km/h ESE 0.0 mm  -573.3 °C 7.7 °C
Castelgomberto (VI) 21/02/17 21.54 6.4 °C 87 % 4.4 °C 1018.4 hPa 0.9 Km/h E 0.0 mm  2.7 °C 8.1 °C
Castelnuovo V.C. (PI) 21/02/17 21.31 3.6 °C 95 % 2.8 °C 1020.6 hPa 0.0 Km/h S 0.2 mm  1.9 °C 10.5 °C
Castiglione del Lago (PG) 21/02/17 21.30 6.1 °C 77 % 2.3 °C 1024.1 hPa 0.0 Km/h --- 0.0 mm  -2.3 °C 14.1 °C
Castiglione della Pescaia (GR) 21/02/17 21.53 7.9 °C 80 % 4.7 °C 1024.4 hPa 3.6 Km/h NNE 0.0 mm  -0.7 °C 16.3 °C
Castiglione della Pescaia Vaticino (GR) 21/02/17 21.47 7.6 °C 1 % -45.3 °C 1020.7 hPa 0.0 Km/h W 0.0 mm  2.8 °C 16.2 °C
Cavaria con Premezzo (VA) 21/02/17 21.53 5.5 °C 89 % 3.9 °C 1017.9 hPa 2.0 Km/h NE 0.2 mm  -0.1 °C 14.6 °C
Cavazzale (VI) 21/02/17 20.10 7.2 °C 87 % 5.1 °C 1018.7 hPa 0.0 Km/h --- 0.0 mm  2.7 °C 8.2 °C
Cefalù (PA) 21/02/17 21.54 9.9 °C 73 % 5.3 °C 1020.4 hPa 3.9 Km/h S 1.0 mm  8.1 °C 14.5 °C
Cerea (VR) 21/02/17 21.25 4.5 °C 96 % 3.9 °C 1018.9 hPa 1.6 Km/h ESE 0.3 mm  1.3 °C 6.8 °C
Chioggia (VE) 21/02/17 21.10 5.6 °C 0 % -31.2 °C 1018.9 hPa 0.0 Km/h N 0.5 mm * 1.8 °C 5.6 °C
Chiusi (SI) 21/02/17 21.40 7.7 °C 88 % 5.8 °C 1019.9 hPa 0.0 Km/h SE 0.0 mm  2.6 °C 14.2 °C
Cima Grappa (TV) 21/02/17 21.54 6.2 °C 53 % -2.7 °C 1018.0 hPa 10.9 Km/h NNW 0.0 mm  0.0 °C 8.1 °C
Cismon del Grappa loc. Corlo (VI) 21/02/17 21.54 3.2 °C 90 % 1.7 °C 1019.0 hPa 0.0 Km/h E 0.0 mm  1.9 °C 8.6 °C
Cittadella (PD) 21/02/17 21.44 6.8 °C 87 % 4.8 °C 1018.2 hPa 0.0 Km/h ESE 0.0 mm  4.9 °C 8.4 °C
Civita Castellana (VT) 21/02/17 21.54 6.9 °C 83 % 4.2 °C 1021.9 hPa 6.5 Km/h NW 0.0 mm  -0.9 °C 15.0 °C
Cogollo del Cengio (VI) 21/02/17 21.53 4.8 °C 99 % 4.7 °C 1016.8 hPa 3.4 Km/h ESE 0.0 mm  2.6 °C 6.6 °C
Colle del Piccolo San Bernardo La Thuile (AO) 21/02/17 21.39 -1.2 °C 96 % -1.7 °C 1022.9 hPa 22.5 Km/h SSW 0.5 mm  -4.4 °C 0.1 °C
Colle S. Lucia Posalz (BL) 21/02/17 21.54 5.1 °C 60 % -2.0 °C 1022.8 hPa 0.0 Km/h SSW 0.0 mm  -0.1 °C 7.1 °C
Cologna Veneta Sant'Andrea (VR) 21/02/17 21.35 6.3 °C 91 % 5.0 °C 1017.0 hPa 3.2 Km/h ESE 0.0 mm  0.8 °C 7.9 °C
Colognola ai Colli (VR) 21/02/17 21.30 6.4 °C 90 % 4.9 °C 1019.6 hPa 0.0 Km/h --- 0.0 mm  1.2 °C 7.7 °C
Contrada Dosso Gervasio (VR) 21/02/17 21.45 2.6 °C 94 % 1.7 °C 1016.3 hPa 0.0 Km/h NNW 0.0 mm  2.4 °C 8.3 °C
Corrubio di S. Anna d'Alfaedo (VR) 21/02/17 21.40 3.1 °C 97 % 2.7 °C 1019.4 hPa 0.0 Km/h ENE 0.0 mm  2.6 °C 7.8 °C
Cosseria Lidora (SV) 21/02/17 21.30 8.7 °C 86 % 6.5 °C 1019.2 hPa 12.9 Km/h SE 0.0 mm  3.8 °C 10.6 °C
Costa di Vittorio Veneto (TV) 21/02/17 21.42 6.3 °C 90 % 4.8 °C 1017.8 hPa 0.0 Km/h SSE 0.0 mm  3.8 °C 7.0 °C
Crespano del Grappa (TV) 21/02/17 21.41 5.4 °C 87 % 3.4 °C 1014.1 hPa 0.0 Km/h NW 0.0 mm  4.0 °C 6.5 °C
Dorno (PV) 21/02/17 21.53 9.6 °C 83 % 6.9 °C 1018.6 hPa 0.0 Km/h SSW 0.2 mm  2.4 °C 14.8 °C
Dossobuono (VR) 21/02/17 21.54 5.3 °C 92 % 4.1 °C 1020.0 hPa 1.6 Km/h SE 0.0 mm  2.7 °C 6.2 °C
Esine (BS) 21/02/17 21.53 6.3 °C 72 % 1.7 °C 1017.7 hPa 3.0 Km/h N 0.0 mm  3.1 °C 14.2 °C
Falzè di Piave (TV) 21/02/17 21.06 5.5 °C 92 % 4.3 °C 1019.9 hPa 0.0 Km/h --- 0.0 mm  1.1 °C 7.2 °C
Farra di Soligo (TV) 21/02/17 21.53 6.1 °C 90 % 4.6 °C 1017.5 hPa 0.0 Km/h WNW 0.0 mm  3.9 °C 7.3 °C
Favaro Veneto (VE) 21/02/17 21.40 6.2 °C 88 % 4.4 °C 1019.4 hPa 0.0 Km/h --- 0.0 mm  3.9 °C 6.4 °C
Feltre Celarda (BL) 21/02/17 21.54 0.6 °C 89 % -1.0 °C 1016.5 hPa 0.0 Km/h W 0.0 mm  0.6 °C 13.0 °C
Ferrara di M.B. (VR) 21/02/17 20.50 2.7 °C 79 % -0.6 °C 1013.8 hPa 6.4 Km/h NNW 0.0 mm  0.8 °C 8.0 °C
Fiavè loc. Ballino (TN) 21/02/17 21.54 2.0 °C 66 % -3.7 °C 1020.9 hPa 2.5 Km/h W 0.0 mm  1.8 °C 10.7 °C
Filo di Argenta (FE) 21/02/17 21.35 5.1 °C 96 % 4.5 °C 1019.6 hPa 3.3 Km/h NE 0.0 mm  -1.1 °C 11.1 °C
Fogliano Redipuglia (GO) 21/02/17 21.45 7.0 °C 93 % 5.9 °C 1018.8 hPa 0.0 Km/h N 0.0 mm  3.0 °C 8.6 °C
Foligno (PG) 21/02/17 21.30 6.3 °C 76 % 2.4 °C 1021.7 hPa 6.4 Km/h ENE 0.0 mm  -0.1 °C 13.3 °C
Fontanafredda (PN) 21/02/17 21.55 5.6 °C 96 % 5.0 °C 1018.4 hPa 0.0 Km/h SE 0.0 mm  2.7 °C 6.7 °C
Gallio (VI) 21/02/17 21.45 1.9 °C 82 % -0.8 °C 1018.2 hPa 1.6 Km/h NW 0.0 mm  0.4 °C 8.0 °C
Gardolo (TN) 21/02/17 21.53 2.7 °C 81 % -0.2 °C 1019.8 hPa 0.0 Km/h NNE 0.0 mm  1.2 °C 11.9 °C
Genova Albaro (GE) 21/02/17 21.53 11.6 °C 67 % 5.7 °C 1022.0 hPa 2.1 Km/h NE 0.0 mm  8.1 °C 14.5 °C
Genova Erzelli (GE) 21/02/17 21.37 12.1 °C 79 % 8.5 °C 1019.7 hPa 1.6 Km/h NNW 0.0 mm  9.3 °C 13.7 °C
Girifalco (CZ) 21/02/17 21.53 7.9 °C 80 % 4.7 °C 1020.9 hPa 12.9 Km/h NNW 0.0 mm  5.6 °C 11.0 °C
Gorizia (GO) 21/02/17 21.54 6.4 °C 87 % 4.1 °C 1019.4 hPa 0.0 Km/h NNE 0.0 mm  3.5 °C 7.6 °C
Gradisca d'Isonzo (GO) 21/02/17 21.54 6.3 °C 88 % 4.5 °C 1015.8 hPa 0.0 Km/h SE 0.0 mm  1.7 °C 8.1 °C
Isola d'Elba Marina di Campo (LI) 21/02/17 21.15 9.9 °C 90 % 8.4 °C 1032.0 hPa 1.6 Km/h SSW 0.0 mm  2.1 °C 14.7 °C
Jesolo (VE) 21/02/17 18.15 7.2 °C 0 % 0.0 °C 1015.5 hPa 0.0 Km/h SSW 0.0 mm  6.2 °C 7.2 °C
Lavis (TN) 21/02/17 21.50 4.6 °C 75 % 0.6 °C 1018.6 hPa 3.2 Km/h ESE 0.0 mm  1.1 °C 10.1 °C
Laxolo (BG) 21/02/17 21.38 5.1 °C 77 % 1.4 °C 1013.5 hPa 0.0 Km/h E 0.0 mm  0.9 °C 12.4 °C
Legnago (VR) 21/02/17 21.30 4.0 °C 98 % 3.7 °C 1018.8 hPa 0.0 Km/h --- 0.0 mm  2.2 °C 6.8 °C
Lesmo (MB) 21/02/17 21.35 4.2 °C 90 % 2.7 °C 1019.0 hPa 0.0 Km/h --- 0.0 mm  -0.9 °C 14.3 °C
Loano (SV) 21/02/17 21.30 11.3 °C 82 % 8.4 °C 1019.9 hPa 3.0 Km/h N 0.0 mm  9.7 °C 13.6 °C
Lovere (BG) 21/02/17 21.41 8.6 °C 38 % -4.9 °C 1018.0 hPa 0.0 Km/h WSW 0.0 mm  4.6 °C 14.1 °C
Lugagnano (VR) 21/02/17 21.54 5.7 °C 94 % 5.0 °C 1018.0 hPa 0.0 Km/h S 0.0 mm  2.3 °C 6.1 °C
Lusiana Sciessere (VI) 16/02/17 19.28 8.6 °C 47 % -2.1 °C 1028.3 hPa 0.4 Km/h NNE 0.0 mm  7.6 °C 12.1 °C
Magnano (BI) 21/02/17 21.54 3.6 °C 85 % 1.3 °C 1007.8 hPa 0.2 Km/h W 0.6 mm  -0.3 °C 12.1 °C
Malnate San Salvatore (VA) 21/02/17 21.44 4.6 °C 90 % 3.1 °C 1019.5 hPa 0.0 Km/h SE 0.0 mm  0.6 °C 14.1 °C
Marano Vicentino2 (VI) 21/02/17 21.53 6.3 °C 89 % 4.6 °C 1017.8 hPa 0.0 Km/h NW 0.0 mm  2.4 °C 7.5 °C
Margone (TN) 21/02/17 21.50 3.1 °C 79 % -0.2 °C 1020.4 hPa 2.6 Km/h NNW 0.0 mm  2.0 °C 7.1 °C
Marostica Valle San Floriano (VI) 21/02/17 21.54 6.1 °C 92 % 5.0 °C 1020.0 hPa 0.0 Km/h SW 0.0 mm  3.6 °C 7.8 °C
Marta (VT) 21/02/17 21.50 6.2 °C 90 % 4.7 °C 1018.6 hPa 3.0 Km/h S 0.0 mm  3.4 °C 13.3 °C
Martignano (TN) 21/02/17 21.35 5.9 °C 72 % 1.2 °C 1017.4 hPa 3.2 Km/h ESE 0.0 mm  2.4 °C 10.4 °C
Mascalucia (CT) 21/02/17 21.41 5.8 °C 81 % 2.8 °C 1022.0 hPa 0.0 Km/h N 0.0 mm  3.7 °C 14.7 °C
Masiera di Bagnacavallo (RA) 21/02/17 21.21 5.6 °C 92 % 4.4 °C 1017.8 hPa 4.1 Km/h NE 0.0 mm  -0.4 °C 11.5 °C
Massone di Arco (TN) 21/02/17 21.50 5.1 °C 92 % 3.9 °C 1017.7 hPa 0.0 Km/h ESE 0.0 mm  4.1 °C 8.4 °C
Mazzurega (VR) 21/02/17 21.47 5.1 °C 89 % 3.4 °C 1018.8 hPa 0.0 Km/h E 0.0 mm  2.6 °C 8.5 °C
Merlara (PD) 21/02/17 21.35 2.9 °C 96 % 2.4 °C 1018.5 hPa 0.0 Km/h --- 0.3 mm  -0.6 °C 5.9 °C
Mezzana Bigli (PV) 21/02/17 21.50 8.2 °C 86 % 6.0 °C 1017.3 hPa 0.0 Km/h SSW 0.3 mm  2.1 °C 15.3 °C
Migliarino (FE) 21/02/17 21.50 6.1 °C 89 % 4.4 °C 1018.9 hPa 3.5 Km/h N 0.0 mm  1.1 °C 11.5 °C
Miglionico (MT) 21/02/17 21.30 9.3 °C 47 % -1.5 °C 1018.6 hPa 0.0 Km/h --- 0.0 mm  2.4 °C 12.3 °C
Miola di Piné (TN) 21/02/17 21.50 2.1 °C 76 % -1.7 °C 1019.1 hPa 2.4 Km/h SE 0.0 mm  -0.4 °C 9.5 °C
Mirabella Imbaccari (CT) 21/02/17 21.37 7.5 °C 70 % 2.3 °C 1021.9 hPa 1.9 Km/h NW 0.0 mm  6.4 °C 14.5 °C
Molina (VR) 21/02/17 21.48 3.5 °C 82 % 0.7 °C 1009.7 hPa 0.0 Km/h N 0.0 mm  2.5 °C 8.7 °C
Monasterolo Torinese (TO) 21/02/17 21.35 8.2 °C 64 % 1.8 °C 1014.5 hPa 0.0 Km/h --- 0.0 mm  2.4 °C 13.1 °C
Moneglia loc. Casale (GE) 21/02/17 21.50 9.7 °C 89 % 8.0 °C 1022.1 hPa 3.2 Km/h NNE 0.0 mm  8.9 °C 13.7 °C
Moneglia loc. La Secca (GE) 21/02/17 21.49 10.7 °C 88 % 8.8 °C 1020.3 hPa 0.0 Km/h NE 0.0 mm  10.7 °C 11.3 °C
Mongrando San Michele (BI) 21/02/17 21.30 6.7 °C 76 % 2.8 °C 1017.7 hPa 0.0 Km/h --- 0.0 mm  1.9 °C 13.9 °C
Montagna in Valtellina (SO) 21/02/17 21.50 7.0 °C 66 % 1.1 °C 1019.1 hPa 0.0 Km/h NNE 0.0 mm  2.8 °C 14.7 °C
Montebello Vicentino loc. Selva (VI) 21/02/17 21.51 6.0 °C 92 % 4.8 °C 1019.0 hPa 11.1 Km/h NNE 0.0 mm  1.7 °C 8.0 °C
Montecchio Maggiore La Valle (VI) 21/02/17 21.47 6.4 °C 1 % -46.1 °C 1013.1 hPa 0.0 Km/h N 0.0 mm  2.1 °C 8.5 °C
Montecchio Maggiore Sant'Urbano (VI) 21/02/17 21.46 2.6 °C 46 % -7.9 °C 1031.7 hPa 0.0 Km/h NW 0.0 mm  2.6 °C 2.6 °C
Monteforte d'Alpone (VR) 21/02/17 21.55 7.2 °C 85 % 4.9 °C 1017.2 hPa 8.0 Km/h NE 0.0 mm  2.2 °C 8.8 °C
Montelabbate (PU) 21/02/17 21.46 12.2 °C 64 % 5.6 °C 1017.8 hPa 12.9 Km/h SSW 0.0 mm  1.9 °C 14.8 °C
Montespertoli (FI) 21/02/17 21.47 8.9 °C 82 % 6.0 °C 1022.2 hPa 2.9 Km/h S 0.0 mm  5.4 °C 13.2 °C
Montorso Vicentino (VI) 21/02/17 21.50 4.8 °C 92 % 3.6 °C 1018.8 hPa 0.0 Km/h NNW 0.2 mm  3.5 °C 6.6 °C
Muzzano (BI) 21/02/17 21.30 8.5 °C 62 % 1.6 °C 1017.0 hPa 3.2 Km/h NW 0.0 mm  3.5 °C 13.1 °C
Nichelino (TO) 21/02/17 21.55 9.2 °C 76 % 5.2 °C 1017.5 hPa 0.0 Km/h --- 0.3 mm  2.0 °C 15.0 °C
Novara (NO) 21/02/17 21.50 8.5 °C 85 % 6.1 °C 1017.5 hPa 0.0 Km/h --- 0.0 mm  0.4 °C 15.2 °C
Onara extraurbana (PD) 17/02/17 19.25 6.6 °C 85 % 4.3 °C 1016.6 hPa 0.0 Km/h W 0.0 mm  -0.3 °C 7.4 °C
Oppeano (VR) 19/02/17 10.10 1.5 °C 96 % 0.9 °C 1023.3 hPa 0.0 Km/h SSW 0.0 mm  -1.3 °C 3.7 °C
Oristano (OR) 21/02/17 21.52 11.4 °C 83 % 8.7 °C 1021.3 hPa 0.0 Km/h ESE 0.0 mm  6.4 °C 15.9 °C
Orosei (NU) 21/02/17 21.56 12.8 °C 69 % 7.3 °C 1021.1 hPa 8.0 Km/h W 0.0 mm  5.6 °C 15.1 °C
Ortonovo (SP) 21/02/17 21.50 9.1 °C 79 % 5.7 °C 1019.6 hPa 2.5 Km/h SE 0.0 mm  7.7 °C 13.6 °C
Orvieto (TR) 21/02/17 21.46 6.9 °C 87 % 4.9 °C 1019.0 hPa 0.0 Km/h SSE 0.0 mm  -1.4 °C 16.0 °C
Ovaro loc. Liariis (UD) 21/02/17 21.50 1.8 °C 93 % 0.8 °C 1020.9 hPa 0.0 Km/h --- 0.0 mm  0.3 °C 7.9 °C
Pace del Mela (ME) 21/02/17 21.50 10.6 °C 61 % 3.4 °C 1023.4 hPa 6.5 Km/h W 4.5 mm  6.6 °C 14.1 °C
Padergnone (TN) 21/02/17 21.45 5.0 °C 91 % 3.7 °C 1019.8 hPa 0.0 Km/h NNW 0.0 mm  2.8 °C 11.8 °C
Parella (TO) 21/02/17 21.46 7.6 °C 75 % 3.4 °C 1016.5 hPa 0.0 Km/h WNW 0.3 mm  -1.1 °C 13.9 °C
Pastrengo (VR) 21/02/17 21.46 5.6 °C 93 % 4.6 °C 1018.8 hPa 0.0 Km/h N 0.0 mm  2.9 °C 6.0 °C
Pastrengo Cornè (VR) 21/02/17 21.56 5.6 °C 95 % 4.9 °C 1018.2 hPa 0.0 Km/h ENE 0.0 mm  2.9 °C 6.1 °C
Pecetto Torinese (TO) 21/02/17 21.46 8.1 °C 84 % 5.6 °C 1013.4 hPa 3.2 Km/h WNW 0.3 mm  1.2 °C 15.9 °C
Pedara (CT) 21/02/17 21.50 6.8 °C 70 % 1.7 °C 1018.5 hPa 1.5 Km/h W 0.0 mm  3.7 °C 11.8 °C
Pedemonte (VR) 21/02/17 21.55 5.7 °C 89 % 4.1 °C 1018.5 hPa 0.0 Km/h N 0.0 mm  2.3 °C 6.8 °C
Perugia San Mariano (PG) 21/02/17 21.40 7.1 °C 71 % 2.2 °C 1019.5 hPa 0.0 Km/h NNE 0.0 mm  -0.6 °C 12.9 °C
Pila Valsesia (VC) 21/02/17 21.55 5.3 °C 75 % 1.2 °C 1016.4 hPa 1.6 Km/h NW 0.0 mm  1.2 °C 16.1 °C
Piovà Massaia (AT) 21/02/17 21.50 8.2 °C 87 % 6.2 °C 1017.3 hPa 1.4 Km/h NE 0.2 mm  -0.7 °C 13.3 °C
Pisa zona I Passi (PI) 21/02/17 21.50 9.0 °C 81 % 5.9 °C 1021.3 hPa 0.0 Km/h NE 0.0 mm  5.1 °C 14.3 °C
Pomezia (RM) 21/02/17 21.50 10.2 °C 85 % 7.8 °C 1021.1 hPa 0.0 Km/h WNW 0.0 mm  4.5 °C 15.4 °C
Ponte San Nicolò (PD) 21/02/17 21.45 6.7 °C 90 % 5.2 °C 1018.8 hPa 0.0 Km/h E 0.0 mm  3.0 °C 7.1 °C
Ponte San Pellegrino (MO) 21/02/17 21.49 4.9 °C 99 % 4.8 °C 1009.4 hPa 13.3 Km/h E 0.0 mm  0.5 °C 9.8 °C
Pordenone (PN) 21/02/17 21.50 6.9 °C 90 % 5.4 °C 1019.7 hPa 0.0 Km/h --- 0.0 mm  4.7 °C 7.7 °C
Pozzolo Formigaro (AL) 21/02/17 21.56 7.7 °C 87 % 5.7 °C 1018.5 hPa 0.0 Km/h SSE 0.5 mm  1.3 °C 15.1 °C
Pray (BI) 21/02/17 21.50 3.7 °C 87 % 1.7 °C 1018.5 hPa 0.0 Km/h WNW 0.0 mm  -0.4 °C 14.3 °C
Quinto di Valpantena (VR) 21/02/17 21.50 6.2 °C 92 % 5.0 °C 1018.9 hPa 0.0 Km/h --- 0.0 mm  1.9 °C 6.2 °C
Reggello (FI) 21/02/17 21.50 6.3 °C 84 % 3.8 °C 1024.5 hPa 9.7 Km/h SO 0.0 mm  4.4 °C 11.2 °C
Riccione (RN) 21/02/17 20.50 5.8 °C 95 % 5.1 °C 1018.6 hPa 1.6 Km/h WSW 0.3 mm  0.5 °C 7.4 °C
Rifugio Bocca di Selva (VR) 21/02/17 21.50 5.8 °C 58 % -1.8 °C 1015.1 hPa 20.9 Km/h N 0.0 mm  1.2 °C 9.3 °C
Rifugio Fiori del Baldo (VR) 21/02/17 21.56 5.5 °C 44 % -4.9 °C 1017.2 hPa 38.0 Km/h N 0.0 mm  0.3 °C 6.1 °C
Rifugio Primaneve (VR) 21/02/17 21.47 6.1 °C 52 % -3.1 °C 1017.2 hPa 20.9 Km/h NW 0.0 mm  0.5 °C 7.0 °C
Rimini (RN) 21/02/17 21.50 6.5 °C 88 % 4.7 °C 1018.8 hPa 3.2 Km/h WNW 0.3 mm  0.8 °C 9.1 °C
Rimini Zona Palas (RN) 21/02/17 21.43 6.1 °C 91 % 5.0 °C 1018.8 hPa 6.4 Km/h W 0.3 mm  1.2 °C 10.5 °C
Rivalba (TO) 21/02/17 21.46 7.2 °C 84 % 4.7 °C 1014.0 hPa 0.0 Km/h SE 0.3 mm  0.7 °C 14.0 °C
Rivalta sul Mincio (MN) 21/02/17 21.56 4.3 °C 95 % 3.6 °C 1019.4 hPa 3.9 Km/h E 0.0 mm  2.4 °C 10.6 °C
Roma Prato della Signora (RM) 17/02/17 21.21 12.7 °C 76 % 8.6 °C 1022.9 hPa 0.0 Km/h ENE 8.9 mm  11.5 °C 12.8 °C
Romano d'Ezzelino Fellette (VI) 21/02/17 21.50 6.1 °C 84 % 3.6 °C 1022.9 hPa 3.0 Km/h ENE 0.0 mm  3.7 °C 7.5 °C
Ronciglione Centro (VT) 21/02/17 21.50 6.9 °C 73 % 2.4 °C 1020.0 hPa 0.0 Km/h WNW 0.0 mm  3.0 °C 13.3 °C
Rosolina (RO) 21/02/17 21.40 5.6 °C 99 % 5.4 °C 1019.5 hPa 3.2 Km/h NNE 0.0 mm  1.2 °C 5.7 °C
S. Giovanni Ilarione2 (VR) 21/02/17 21.50 6.7 °C 86 % 4.5 °C 1018.7 hPa 0.0 Km/h NW 0.0 mm  1.8 °C 8.2 °C
S. Giovanni Lupatoto (VR) 21/02/17 21.50 5.9 °C 94 % 5.0 °C 1019.2 hPa 0.0 Km/h --- 0.0 mm  2.9 °C 7.1 °C
S. Giovanni Rotondo (FG) 21/02/17 21.55 7.7 °C 61 % 0.6 °C 1019.9 hPa 0.0 Km/h --- 0.0 mm  3.1 °C 13.3 °C
S. Lorenzo di Vittorio Veneto (TV) 21/02/17 21.45 5.2 °C 93 % 4.2 °C 1019.5 hPa 0.0 Km/h N 0.0 mm  3.8 °C 6.3 °C
S. Lorenzo Nuovo (VT) 21/02/17 21.51 6.6 °C 85 % 4.3 °C 1018.8 hPa 0.6 Km/h S 0.0 mm  4.8 °C 12.3 °C
S. Maria Maddalena (RO) 21/02/17 21.45 6.2 °C 93 % 5.0 °C 1018.2 hPa 1.7 Km/h ESE 0.0 mm  1.7 °C 8.7 °C
S. Martino Lupari (PD) 21/02/17 19.30 6.4 °C 94 % 5.5 °C 1019.3 hPa 0.0 Km/h --- 0.2 mm  3.4 °C 7.6 °C
S. Rocco di Villabalzana (VI) 21/02/17 21.53 5.6 °C 92 % 4.4 °C 1018.8 hPa 3.2 Km/h ENE 0.0 mm  2.8 °C 6.8 °C
Sacile (PN) 21/02/17 21.40 6.4 °C 93 % 5.3 °C 1018.5 hPa 0.0 Km/h NE 0.0 mm  3.5 °C 6.8 °C
Salcedo (VI) 21/02/17 21.50 3.9 °C 88 % 2.1 °C 1016.8 hPa 3.0 Km/h ENE 0.0 mm  3.1 °C 5.3 °C
San Benedetto del Tronto (AP) 21/02/17 21.35 7.8 °C 49 % -2.3 °C 1016.0 hPa 0.0 Km/h S 0.0 mm  3.4 °C 12.5 °C
San Cataldo (CL) 21/02/17 21.51 6.6 °C 61 % -0.4 °C 1018.3 hPa 5.2 Km/h NW 0.0 mm  4.8 °C 10.8 °C
San Giovanni la Punta Trappeto (CT) 21/02/17 21.30 8.4 °C 83 % 5.7 °C 1023.1 hPa 3.2 Km/h NNW 0.0 mm  5.4 °C 15.4 °C
San Nazario (VI) 21/02/17 21.41 6.5 °C 85 % 4.2 °C 1018.2 hPa 0.0 Km/h N 0.0 mm  3.8 °C 8.1 °C
San Pietro in Cariano (VR) 21/02/17 21.49 5.8 °C 93 % 4.8 °C 1017.3 hPa 0.0 Km/h S 0.0 mm  2.0 °C 6.1 °C
San Salvo3 (CH) 21/02/17 21.50 8.4 °C 53 % -0.6 °C 1017.0 hPa 0.0 Km/h SW 0.0 mm  3.2 °C 15.1 °C
San Vito (CA) 21/02/17 21.51 12.2 °C 69 % 6.7 °C 1015.6 hPa 0.0 Km/h NNE 0.0 mm  6.0 °C 21.3 °C
Santarcangelo di Romagna (RN) 21/02/17 21.50 6.1 °C 82 % 3.3 °C 1018.6 hPa 0.0 Km/h N 0.0 mm  1.9 °C 12.1 °C
Savelli (KR) 21/02/17 21.49 6.4 °C 45 % -4.7 °C 1021.9 hPa 3.2 Km/h S 0.0 mm  0.9 °C 9.0 °C
Schio (VI) 21/02/17 21.25 6.3 °C 89 % 4.6 °C 1020.3 hPa 0.0 Km/h --- 0.0 mm  3.8 °C 7.8 °C
Schio Monte Magré (VI) 21/02/17 21.50 4.9 °C 94 % 4.0 °C 0.0 hPa 0.0 Km/h E 0.0 mm  3.3 °C 5.9 °C
Seremange Erzange (Moselle) 21/02/17 21.50 9.7 °C 96 % 9.1 °C 1018.5 hPa 6.5 Km/h W 2.6 mm  8.7 °C 10.9 °C
Sinnai (CA) 21/02/17 21.25 10.9 °C 80 % 7.6 °C 1022.5 hPa 3.2 Km/h NNW 0.0 mm  9.1 °C 17.2 °C
Soave Borgo Bassano (VR) 21/02/17 21.35 7.8 °C 84 % 5.2 °C 1019.0 hPa 6.0 Km/h ENE 0.0 mm  2.2 °C 9.6 °C
Soriso (NO) 21/02/17 21.30 7.7 °C 73 % 3.1 °C 1018.5 hPa 0.0 Km/h --- 0.0 mm  3.4 °C 13.9 °C
Spoltore (PE) 21/02/17 21.39 8.4 °C 52 % -0.9 °C 1019.2 hPa 0.0 Km/h W 0.0 mm  3.6 °C 17.2 °C
Staranzano (GO) 21/02/17 21.40 7.0 °C 89 % 5.3 °C 1019.9 hPa 0.0 Km/h SW 0.0 mm  2.9 °C 7.7 °C
Stiore - Monteveglio (BO) 21/02/17 21.30 4.7 °C 91 % 3.3 °C 1015.6 hPa 4.8 Km/h SSE 0.0 mm  0.5 °C 12.2 °C
Taio Mollaro (TN) 21/02/17 21.50 3.1 °C 76 % -0.7 °C 1018.8 hPa 0.0 Km/h N 0.2 mm  -0.4 °C 12.9 °C
Taranto (TA) 21/02/17 21.35 9.9 °C 66 % 3.9 °C 1016.5 hPa 1.5 Km/h ESE 0.0 mm  7.8 °C 14.6 °C
Todi (PG) 21/02/17 21.35 8.3 °C 78 % 4.7 °C 1021.0 hPa 0.0 Km/h N 0.0 mm  2.4 °C 13.7 °C
Tombolo (PD) 21/02/17 21.51 5.5 °C 95 % 4.8 °C 1019.8 hPa 0.0 Km/h ESE 0.0 mm  3.5 °C 7.3 °C
Torino Regio Parco (TO) 21/02/17 21.50 9.8 °C 80 % 6.5 °C 1019.9 hPa 0.0 Km/h NE 0.2 mm  2.6 °C 16.0 °C
Torre Annunziata (NA) 21/02/17 21.36 12.4 °C 65 % 6.0 °C 1022.0 hPa 0.0 Km/h N 0.0 mm  8.2 °C 12.9 °C
Torremaggiore (FG) 21/02/17 21.51 8.9 °C 75 % 4.7 °C 1018.4 hPa 1.6 Km/h NE 0.0 mm  4.1 °C 16.9 °C
Torri (FI) 21/02/17 21.15 7.6 °C 85 % 5.2 °C 1021.1 hPa 0.0 Km/h --- 0.0 mm  0.2 °C 12.6 °C
Torrita di Siena (SI) 16/02/17 21.55 5.4 °C 85 % 3.1 °C 1032.5 hPa 0.0 Km/h NNW 0.0 mm  -2.2 °C 15.9 °C
Tortoreto (TE) 21/02/17 21.50 10.1 °C 44 % -1.6 °C 1018.4 hPa 0.0 Km/h WSW 0.0 mm  4.8 °C 13.4 °C
Trambileno (TN) 21/02/17 21.30 1.4 °C 86 % -0.6 °C 1007.3 hPa 0.0 Km/h N 0.0 mm  0.9 °C 9.1 °C
Tregnago (VR) 21/02/17 21.38 5.6 °C 88 % 3.8 °C 1018.2 hPa 0.0 Km/h SE 0.0 mm  1.7 °C 6.2 °C
Tregnago Loc. Centro (VR) 21/02/17 21.35 4.4 °C 95 % 3.7 °C 1012.7 hPa 1.6 Km/h SW 0.0 mm  3.4 °C 7.5 °C
Trento (TN) 21/02/17 21.51 5.5 °C 75 % 1.4 °C 1017.6 hPa 0.0 Km/h SE 0.0 mm  4.0 °C 11.8 °C
Treviso (TV) 21/02/17 21.49 5.6 °C 98 % 5.3 °C 1019.6 hPa 0.0 Km/h E 0.0 mm  3.1 °C 5.8 °C
Tuscania (VT) 21/02/17 17.00 12.3 °C 73 % 7.6 °C 1021.5 hPa 2.6 Km/h W 0.0 mm  2.3 °C 13.9 °C
Val Lastaro (VI) 21/02/17 21.39 -0.2 °C 98 % -0.6 °C 1020.5 hPa 0.0 Km/h W 0.0 mm  -2.5 °C 4.2 °C
Valdobbiadene San Pietro di Barbozza (TV) 21/02/17 21.35 4.9 °C 93 % 3.9 °C 1018.4 hPa 1.6 Km/h S 0.0 mm  3.8 °C 6.5 °C
Valentano (VT) 21/02/17 21.50 6.9 °C 92 % 5.6 °C 1020.4 hPa 6.5 Km/h N 0.0 mm  6.0 °C 11.3 °C
Valenza (AL) 21/02/17 21.42 10.3 °C 80 % 7.1 °C 1017.5 hPa 9.7 Km/h SSW 0.0 mm  1.2 °C 14.3 °C
Valli del Pasubio loc. Gisbenti (VI) 21/02/17 21.50 5.2 °C 63 % -1.3 °C 974.0 hPa 1.1 Km/h --- 0.0 mm  1.7 °C 6.7 °C
Varese Ligure (SP) 21/02/17 21.50 5.7 °C 61 % -1.2 °C 1022.6 hPa 0.0 Km/h NO 0.0 mm  0.6 °C 10.7 °C
Vasto (CH) 21/02/17 21.49 7.8 °C 10 % -21.9 °C 1017.8 hPa 1.3 Km/h N 0.0 mm  2.1 °C 15.8 °C
Vattaro fraz. Pian dei Pradi (TN) 21/02/17 21.50 2.5 °C 73 % -1.9 °C 1019.4 hPa 0.0 Km/h NW 0.0 mm  1.2 °C 8.5 °C
Verona Bgo Venezia (iz3sly) (VR) 21/02/17 18.42 4.7 °C 90 % 3.2 °C 1017.8 hPa 1.6 Km/h ESE 0.0 mm  2.0 °C 5.4 °C
Vestenanova (VR) 21/02/17 21.50 3.8 °C 89 % 2.2 °C 1026.1 hPa 0.0 Km/h S 0.0 mm  2.0 °C 5.7 °C
Vicenza Campedello (VI) 21/02/17 21.54 6.4 °C 93 % 5.6 °C 1019.9 hPa 0.0 Km/h WSW 0.0 mm  1.8 °C 8.0 °C
Vicenza Moracchino (VI) 21/02/17 21.51 6.5 °C 93 % 5.5 °C 1018.1 hPa 3.2 Km/h E 0.0 mm  2.3 °C 7.4 °C
Vicenza Pecori Giraldi (VI) 21/02/17 21.50 7.3 °C 68 % 1.8 °C 1007.2 hPa 0.6 Km/h SE 0.0 mm  3.5 °C 8.9 °C
Vicenza S. Lazzaro (VI) 21/02/17 21.50 7.0 °C 89 % 5.6 °C 1018.3 hPa 0.0 Km/h SE 0.0 mm  2.8 °C 8.2 °C
Vicenza San Bortolo (VI) 18/02/17 01.30 2.4 °C 97 % 2.0 °C 1023.2 hPa 0.0 Km/h NNW 0.0 mm  2.3 °C 3.2 °C
Vicenza San Gaetano (VI) 21/02/17 21.50 7.3 °C 92 % 6.1 °C 1019.0 hPa 0.0 Km/h SSE 0.0 mm  3.6 °C 8.6 °C
Vidor (TV) 21/02/17 21.36 5.8 °C 87 % 3.8 °C 1017.9 hPa 0.0 Km/h ESE 0.0 mm  2.8 °C 7.1 °C
Vieste (FG) 21/02/17 21.51 7.9 °C 74 % 3.6 °C 1020.1 hPa 5.2 Km/h S 0.0 mm  6.3 °C 13.4 °C
Vigasio (VR) 21/02/17 21.30 4.6 °C 97 % 4.1 °C 1017.5 hPa 0.0 Km/h ESE 0.0 mm  3.2 °C 6.9 °C
Vigevano (PV) 20/02/17 03.09 3.9 °C 97 % 3.5 °C 999.7 hPa 0.0 Km/h N 0.0 mm  3.9 °C 4.2 °C
Viozene Toria (CN) 21/02/17 21.50 2.3 °C 79 % -1.0 °C 1016.5 hPa 0.0 Km/h N 0.0 mm  1.9 °C 11.2 °C
Viterbo Santa Barbara (VT) 21/02/17 20.45 8.2 °C 89 % 6.4 °C 1021.2 hPa 0.0 Km/h SW 0.0 mm  1.8 °C 12.9 °C
Vitorchiano Pallone (VT) 21/02/17 18.40 8.9 °C 84 % 6.3 °C 1020.4 hPa 6.4 Km/h N 0.0 mm  3.8 °C 13.2 °C
Vittorio Veneto (TV) 21/02/17 21.40 6.2 °C 87 % 4.2 °C 1018.8 hPa 0.0 Km/h SE 0.0 mm  4.1 °C 7.2 °C
Vittorio Veneto Parco Fenderl (TV) 21/02/17 21.40 6.1 °C 91 % 4.7 °C 1019.2 hPa 0.0 Km/h W 0.0 mm  3.8 °C 7.9 °C
Volpago del Montello (TV) 21/02/17 21.30 5.7 °C 93 % 4.7 °C 1018.7 hPa 0.0 Km/h --- 0.0 mm  3.6 °C 6.6 °C
 
(*) = Precipitazioni nelle ultime 24h.
Dati non aggiornati nell'ultima ora.
   
In collaborazione con:
 
Top! Top!